sensor_id;sensor_type;location;lat;lon;timestamp;P1;durP1;ratioP1;P2;durP2;ratioP2
53064;SDS011;38948;48.376;-4.312;2022-10-24T00:01:10;0.70;;;0.28;;
53064;SDS011;38948;48.376;-4.312;2022-10-24T00:03:36;0.73;;;0.30;;
53064;SDS011;38948;48.376;-4.312;2022-10-24T00:06:03;1.33;;;0.28;;
53064;SDS011;38948;48.376;-4.312;2022-10-24T00:08:30;0.60;;;0.38;;
53064;SDS011;38948;48.376;-4.312;2022-10-24T00:10:56;4.82;;;0.63;;
53064;SDS011;38948;48.376;-4.312;2022-10-24T00:13:22;1.45;;;0.35;;
53064;SDS011;38948;48.376;-4.312;2022-10-24T00:15:48;0.55;;;0.43;;
53064;SDS011;38948;48.376;-4.312;2022-10-24T00:18:15;0.93;;;0.30;;
53064;SDS011;38948;48.376;-4.312;2022-10-24T00:20:41;2.40;;;0.38;;
53064;SDS011;38948;48.376;-4.312;2022-10-24T00:23:07;0.25;;;0.20;;
53064;SDS011;38948;48.376;-4.312;2022-10-24T00:25:34;1.80;;;0.32;;
53064;SDS011;38948;48.376;-4.312;2022-10-24T00:28:00;0.82;;;0.40;;
53064;SDS011;38948;48.376;-4.312;2022-10-24T00:30:26;2.83;;;0.50;;
53064;SDS011;38948;48.376;-4.312;2022-10-24T00:32:52;1.38;;;0.40;;
53064;SDS011;38948;48.376;-4.312;2022-10-24T00:35:18;1.67;;;0.40;;
53064;SDS011;38948;48.376;-4.312;2022-10-24T00:37:44;1.27;;;0.38;;
53064;SDS011;38948;48.376;-4.312;2022-10-24T00:40:12;1.00;;;0.20;;
53064;SDS011;38948;48.376;-4.312;2022-10-24T00:42:39;1.55;;;0.52;;
53064;SDS011;38948;48.376;-4.312;2022-10-24T00:47:49;1.50;;;0.38;;
53064;SDS011;38948;48.376;-4.312;2022-10-24T00:50:16;0.30;;;0.08;;
53064;SDS011;38948;48.376;-4.312;2022-10-24T00:52:43;1.70;;;0.47;;
53064;SDS011;38948;48.376;-4.312;2022-10-24T00:55:10;1.25;;;0.40;;
53064;SDS011;38948;48.376;-4.312;2022-10-24T00:57:38;1.13;;;0.50;;
53064;SDS011;38948;48.376;-4.312;2022-10-24T01:00:24;0.75;;;0.30;;
53064;SDS011;38948;48.376;-4.312;2022-10-24T01:02:50;0.93;;;0.20;;
53064;SDS011;38948;48.376;-4.312;2022-10-24T01:05:17;0.40;;;0.30;;
53064;SDS011;38948;48.376;-4.312;2022-10-24T01:10:18;0.20;;;0.10;;
53064;SDS011;38948;48.376;-4.312;2022-10-24T01:12:58;0.98;;;0.38;;
53064;SDS011;38948;48.376;-4.312;2022-10-24T01:15:32;0.73;;;0.20;;
53064;SDS011;38948;48.376;-4.312;2022-10-24T01:18:09;2.72;;;0.65;;
53064;SDS011;38948;48.376;-4.312;2022-10-24T01:20:53;2.13;;;0.70;;
53064;SDS011;38948;48.376;-4.312;2022-10-24T01:23:39;1.03;;;0.33;;
53064;SDS011;38948;48.376;-4.312;2022-10-24T01:31:28;0.35;;;0.20;;
53064;SDS011;38948;48.376;-4.312;2022-10-24T01:33:58;3.63;;;0.43;;
53064;SDS011;38948;48.376;-4.312;2022-10-24T01:36:38;2.38;;;0.50;;
53064;SDS011;38948;48.376;-4.312;2022-10-24T01:39:09;0.80;;;0.20;;
53064;SDS011;38948;48.376;-4.312;2022-10-24T01:41:36;0.40;;;0.30;;
53064;SDS011;38948;48.376;-4.312;2022-10-24T01:44:07;1.23;;;0.50;;
53064;SDS011;38948;48.376;-4.312;2022-10-24T01:46:39;1.17;;;0.45;;
53064;SDS011;38948;48.376;-4.312;2022-10-24T01:49:12;1.27;;;0.30;;
53064;SDS011;38948;48.376;-4.312;2022-10-24T01:51:40;3.70;;;0.43;;
53064;SDS011;38948;48.376;-4.312;2022-10-24T01:54:07;2.80;;;0.65;;
53064;SDS011;38948;48.376;-4.312;2022-10-24T01:56:33;1.50;;;0.15;;
53064;SDS011;38948;48.376;-4.312;2022-10-24T01:59:06;3.25;;;0.43;;
53064;SDS011;38948;48.376;-4.312;2022-10-24T02:01:32;0.50;;;0.20;;
53064;SDS011;38948;48.376;-4.312;2022-10-24T02:04:00;1.50;;;0.50;;
53064;SDS011;38948;48.376;-4.312;2022-10-24T02:06:33;0.85;;;0.38;;
53064;SDS011;38948;48.376;-4.312;2022-10-24T02:09:02;1.20;;;0.47;;
53064;SDS011;38948;48.376;-4.312;2022-10-24T02:11:30;0.85;;;0.10;;
53064;SDS011;38948;48.376;-4.312;2022-10-24T02:16:24;1.77;;;0.50;;
53064;SDS011;38948;48.376;-4.312;2022-10-24T02:18:51;0.82;;;0.20;;
53064;SDS011;38948;48.376;-4.312;2022-10-24T02:21:23;0.35;;;0.15;;
53064;SDS011;38948;48.376;-4.312;2022-10-24T02:24:03;1.15;;;0.25;;
53064;SDS011;38948;48.376;-4.312;2022-10-24T02:29:01;0.40;;;0.28;;
53064;SDS011;38948;48.376;-4.312;2022-10-24T02:31:30;2.10;;;0.32;;
53064;SDS011;38948;48.376;-4.312;2022-10-24T02:33:58;0.35;;;0.10;;
53064;SDS011;38948;48.376;-4.312;2022-10-24T02:36:26;1.05;;;0.60;;
53064;SDS011;38948;48.376;-4.312;2022-10-24T02:38:53;1.02;;;0.30;;
53064;SDS011;38948;48.376;-4.312;2022-10-24T02:41:21;1.58;;;0.28;;
53064;SDS011;38948;48.376;-4.312;2022-10-24T02:43:48;0.47;;;0.20;;
53064;SDS011;38948;48.376;-4.312;2022-10-24T02:46:15;1.58;;;0.80;;
53064;SDS011;38948;48.376;-4.312;2022-10-24T02:48:44;1.52;;;0.40;;
53064;SDS011;38948;48.376;-4.312;2022-10-24T02:51:12;0.43;;;0.13;;
53064;SDS011;38948;48.376;-4.312;2022-10-24T02:53:38;1.00;;;0.25;;
53064;SDS011;38948;48.376;-4.312;2022-10-24T02:56:05;1.10;;;0.40;;
53064;SDS011;38948;48.376;-4.312;2022-10-24T02:58:31;1.80;;;0.50;;
53064;SDS011;38948;48.376;-4.312;2022-10-24T03:00:57;1.33;;;0.47;;
53064;SDS011;38948;48.376;-4.312;2022-10-24T03:03:23;2.65;;;0.30;;
53064;SDS011;38948;48.376;-4.312;2022-10-24T03:05:49;0.85;;;0.38;;
53064;SDS011;38948;48.376;-4.312;2022-10-24T03:08:15;1.55;;;0.40;;
53064;SDS011;38948;48.376;-4.312;2022-10-24T03:10:41;1.52;;;0.30;;
53064;SDS011;38948;48.376;-4.312;2022-10-24T03:13:08;2.10;;;0.45;;
53064;SDS011;38948;48.376;-4.312;2022-10-24T03:15:34;1.00;;;0.70;;
53064;SDS011;38948;48.376;-4.312;2022-10-24T03:18:00;3.70;;;0.75;;
53064;SDS011;38948;48.376;-4.312;2022-10-24T03:20:26;0.75;;;0.20;;
53064;SDS011;38948;48.376;-4.312;2022-10-24T03:22:52;0.90;;;0.45;;
53064;SDS011;38948;48.376;-4.312;2022-10-24T03:25:18;2.08;;;0.50;;
53064;SDS011;38948;48.376;-4.312;2022-10-24T03:27:44;0.82;;;0.40;;
53064;SDS011;38948;48.376;-4.312;2022-10-24T03:30:10;1.77;;;0.35;;
53064;SDS011;38948;48.376;-4.312;2022-10-24T03:32:37;1.38;;;0.40;;
53064;SDS011;38948;48.376;-4.312;2022-10-24T03:35:03;3.00;;;0.50;;
53064;SDS011;38948;48.376;-4.312;2022-10-24T03:37:29;1.63;;;0.47;;
53064;SDS011;38948;48.376;-4.312;2022-10-24T03:39:55;2.28;;;0.68;;
53064;SDS011;38948;48.376;-4.312;2022-10-24T03:42:21;1.88;;;0.57;;
53064;SDS011;38948;48.376;-4.312;2022-10-24T03:44:47;0.95;;;0.40;;
53064;SDS011;38948;48.376;-4.312;2022-10-24T03:47:14;0.95;;;0.30;;
53064;SDS011;38948;48.376;-4.312;2022-10-24T03:49:40;1.88;;;0.30;;
53064;SDS011;38948;48.376;-4.312;2022-10-24T03:52:06;2.13;;;0.40;;
53064;SDS011;38948;48.376;-4.312;2022-10-24T03:54:32;1.85;;;0.40;;
53064;SDS011;38948;48.376;-4.312;2022-10-24T03:56:59;0.85;;;0.25;;
53064;SDS011;38948;48.376;-4.312;2022-10-24T03:59:25;1.63;;;0.55;;
53064;SDS011;38948;48.376;-4.312;2022-10-24T04:01:51;1.48;;;0.40;;
53064;SDS011;38948;48.376;-4.312;2022-10-24T04:04:17;1.67;;;0.20;;
53064;SDS011;38948;48.376;-4.312;2022-10-24T04:06:44;2.10;;;0.55;;
53064;SDS011;38948;48.376;-4.312;2022-10-24T04:09:10;0.93;;;0.30;;
53064;SDS011;38948;48.376;-4.312;2022-10-24T04:11:36;0.82;;;0.28;;
53064;SDS011;38948;48.376;-4.312;2022-10-24T04:14:02;2.45;;;0.32;;
53064;SDS011;38948;48.376;-4.312;2022-10-24T04:16:29;2.65;;;0.40;;
53064;SDS011;38948;48.376;-4.312;2022-10-24T04:18:58;1.23;;;0.20;;
53064;SDS011;38948;48.376;-4.312;2022-10-24T04:21:24;2.75;;;0.38;;
53064;SDS011;38948;48.376;-4.312;2022-10-24T04:23:50;0.20;;;0.20;;
53064;SDS011;38948;48.376;-4.312;2022-10-24T04:26:16;0.80;;;0.17;;
53064;SDS011;38948;48.376;-4.312;2022-10-24T04:28:43;0.93;;;0.20;;
53064;SDS011;38948;48.376;-4.312;2022-10-24T04:31:11;2.75;;;0.43;;
53064;SDS011;38948;48.376;-4.312;2022-10-24T04:33:37;0.77;;;0.20;;
53064;SDS011;38948;48.376;-4.312;2022-10-24T04:36:03;2.67;;;0.60;;
53064;SDS011;38948;48.376;-4.312;2022-10-24T04:38:30;1.67;;;0.30;;
53064;SDS011;38948;48.376;-4.312;2022-10-24T04:40:56;0.98;;;0.20;;
53064;SDS011;38948;48.376;-4.312;2022-10-24T04:43:22;1.42;;;0.47;;
53064;SDS011;38948;48.376;-4.312;2022-10-24T04:45:49;0.90;;;0.25;;
53064;SDS011;38948;48.376;-4.312;2022-10-24T04:48:15;1.13;;;0.28;;
53064;SDS011;38948;48.376;-4.312;2022-10-24T04:50:42;0.95;;;0.57;;
53064;SDS011;38948;48.376;-4.312;2022-10-24T04:53:08;2.90;;;0.40;;
53064;SDS011;38948;48.376;-4.312;2022-10-24T04:55:34;1.95;;;0.28;;
53064;SDS011;38948;48.376;-4.312;2022-10-24T04:58:00;1.13;;;0.35;;
53064;SDS011;38948;48.376;-4.312;2022-10-24T05:00:27;2.42;;;0.63;;
53064;SDS011;38948;48.376;-4.312;2022-10-24T05:02:53;1.40;;;0.40;;
53064;SDS011;38948;48.376;-4.312;2022-10-24T05:05:19;1.25;;;0.65;;
53064;SDS011;38948;48.376;-4.312;2022-10-24T05:07:45;1.25;;;0.60;;
53064;SDS011;38948;48.376;-4.312;2022-10-24T05:10:12;0.95;;;0.25;;
53064;SDS011;38948;48.376;-4.312;2022-10-24T05:12:39;1.08;;;0.30;;
53064;SDS011;38948;48.376;-4.312;2022-10-24T05:15:05;1.83;;;0.52;;
53064;SDS011;38948;48.376;-4.312;2022-10-24T05:17:32;1.02;;;0.32;;
53064;SDS011;38948;48.376;-4.312;2022-10-24T05:19:58;1.30;;;0.57;;
53064;SDS011;38948;48.376;-4.312;2022-10-24T05:22:24;0.85;;;0.28;;
53064;SDS011;38948;48.376;-4.312;2022-10-24T05:24:50;1.52;;;0.68;;
53064;SDS011;38948;48.376;-4.312;2022-10-24T05:27:16;1.55;;;0.63;;
53064;SDS011;38948;48.376;-4.312;2022-10-24T05:29:54;1.13;;;0.50;;
53064;SDS011;38948;48.376;-4.312;2022-10-24T05:32:21;0.73;;;0.47;;
53064;SDS011;38948;48.376;-4.312;2022-10-24T05:34:47;1.25;;;0.25;;
53064;SDS011;38948;48.376;-4.312;2022-10-24T05:37:13;1.65;;;0.40;;
53064;SDS011;38948;48.376;-4.312;2022-10-24T05:39:40;2.83;;;0.50;;
53064;SDS011;38948;48.376;-4.312;2022-10-24T05:42:06;1.95;;;0.50;;
53064;SDS011;38948;48.376;-4.312;2022-10-24T05:44:32;2.00;;;0.43;;
53064;SDS011;38948;48.376;-4.312;2022-10-24T05:46:58;1.33;;;0.47;;
53064;SDS011;38948;48.376;-4.312;2022-10-24T05:49:24;2.13;;;0.47;;
53064;SDS011;38948;48.376;-4.312;2022-10-24T05:51:50;2.35;;;0.38;;
53064;SDS011;38948;48.376;-4.312;2022-10-24T05:54:16;1.67;;;0.47;;
53064;SDS011;38948;48.376;-4.312;2022-10-24T05:56:43;0.57;;;0.08;;
53064;SDS011;38948;48.376;-4.312;2022-10-24T05:59:09;1.30;;;0.40;;
53064;SDS011;38948;48.376;-4.312;2022-10-24T06:01:35;2.03;;;0.30;;
53064;SDS011;38948;48.376;-4.312;2022-10-24T06:04:01;1.23;;;0.38;;
53064;SDS011;38948;48.376;-4.312;2022-10-24T06:06:27;2.92;;;0.43;;
53064;SDS011;38948;48.376;-4.312;2022-10-24T06:08:53;0.85;;;0.28;;
53064;SDS011;38948;48.376;-4.312;2022-10-24T06:11:19;0.77;;;0.30;;
53064;SDS011;38948;48.376;-4.312;2022-10-24T06:13:45;0.43;;;0.25;;
53064;SDS011;38948;48.376;-4.312;2022-10-24T06:16:11;1.15;;;0.50;;
53064;SDS011;38948;48.376;-4.312;2022-10-24T06:18:38;0.32;;;0.20;;
53064;SDS011;38948;48.376;-4.312;2022-10-24T06:21:05;1.27;;;0.57;;
53064;SDS011;38948;48.376;-4.312;2022-10-24T06:23:31;2.20;;;0.52;;
53064;SDS011;38948;48.376;-4.312;2022-10-24T06:25:57;0.82;;;0.30;;
53064;SDS011;38948;48.376;-4.312;2022-10-24T06:28:24;1.20;;;0.30;;
53064;SDS011;38948;48.376;-4.312;2022-10-24T06:30:50;1.52;;;0.28;;
53064;SDS011;38948;48.376;-4.312;2022-10-24T06:33:18;0.52;;;0.20;;
53064;SDS011;38948;48.376;-4.312;2022-10-24T06:35:44;0.10;;;0.10;;
53064;SDS011;38948;48.376;-4.312;2022-10-24T06:38:11;1.40;;;0.28;;
53064;SDS011;38948;48.376;-4.312;2022-10-24T06:40:37;1.95;;;0.32;;
53064;SDS011;38948;48.376;-4.312;2022-10-24T06:43:07;0.75;;;0.20;;
53064;SDS011;38948;48.376;-4.312;2022-10-24T06:45:33;1.08;;;0.40;;
53064;SDS011;38948;48.376;-4.312;2022-10-24T06:47:59;1.58;;;0.40;;
53064;SDS011;38948;48.376;-4.312;2022-10-24T06:50:25;0.93;;;0.30;;
53064;SDS011;38948;48.376;-4.312;2022-10-24T06:52:51;1.45;;;0.38;;
53064;SDS011;38948;48.376;-4.312;2022-10-24T06:55:17;0.28;;;0.10;;
53064;SDS011;38948;48.376;-4.312;2022-10-24T06:57:43;0.52;;;0.20;;
53064;SDS011;38948;48.376;-4.312;2022-10-24T07:00:09;1.35;;;0.32;;
53064;SDS011;38948;48.376;-4.312;2022-10-24T07:02:35;1.17;;;0.22;;
53064;SDS011;38948;48.376;-4.312;2022-10-24T07:05:02;1.65;;;0.30;;
53064;SDS011;38948;48.376;-4.312;2022-10-24T07:07:28;0.88;;;0.10;;
53064;SDS011;38948;48.376;-4.312;2022-10-24T07:09:55;1.63;;;0.25;;
53064;SDS011;38948;48.376;-4.312;2022-10-24T07:12:22;1.15;;;0.32;;
53064;SDS011;38948;48.376;-4.312;2022-10-24T07:14:48;0.73;;;0.22;;
53064;SDS011;38948;48.376;-4.312;2022-10-24T07:17:15;1.45;;;0.38;;
53064;SDS011;38948;48.376;-4.312;2022-10-24T07:19:41;0.85;;;0.20;;
53064;SDS011;38948;48.376;-4.312;2022-10-24T07:22:07;0.95;;;0.20;;
53064;SDS011;38948;48.376;-4.312;2022-10-24T07:24:34;0.52;;;0.20;;
53064;SDS011;38948;48.376;-4.312;2022-10-24T07:27:00;2.28;;;0.30;;
53064;SDS011;38948;48.376;-4.312;2022-10-24T07:29:26;1.13;;;0.38;;
53064;SDS011;38948;48.376;-4.312;2022-10-24T07:31:52;2.15;;;0.30;;
53064;SDS011;38948;48.376;-4.312;2022-10-24T07:34:18;2.08;;;0.40;;
53064;SDS011;38948;48.376;-4.312;2022-10-24T07:36:45;1.35;;;0.40;;
53064;SDS011;38948;48.376;-4.312;2022-10-24T07:39:11;1.42;;;0.43;;
53064;SDS011;38948;48.376;-4.312;2022-10-24T07:41:38;0.95;;;0.40;;
53064;SDS011;38948;48.376;-4.312;2022-10-24T07:44:05;0.63;;;0.30;;
53064;SDS011;38948;48.376;-4.312;2022-10-24T07:46:32;0.77;;;0.25;;
53064;SDS011;38948;48.376;-4.312;2022-10-24T07:48:58;0.57;;;0.35;;
53064;SDS011;38948;48.376;-4.312;2022-10-24T07:51:24;1.10;;;0.22;;
53064;SDS011;38948;48.376;-4.312;2022-10-24T07:53:57;0.77;;;0.20;;
53064;SDS011;38948;48.376;-4.312;2022-10-24T07:56:24;1.30;;;0.30;;
53064;SDS011;38948;48.376;-4.312;2022-10-24T07:58:50;0.43;;;0.20;;
53064;SDS011;38948;48.376;-4.312;2022-10-24T08:01:17;1.38;;;0.40;;
53064;SDS011;38948;48.376;-4.312;2022-10-24T08:03:45;1.05;;;0.30;;
53064;SDS011;38948;48.376;-4.312;2022-10-24T08:06:16;1.45;;;0.40;;
53064;SDS011;38948;48.376;-4.312;2022-10-24T08:08:42;1.90;;;0.30;;
53064;SDS011;38948;48.376;-4.312;2022-10-24T08:11:09;1.23;;;0.60;;
53064;SDS011;38948;48.376;-4.312;2022-10-24T08:13:35;3.00;;;0.65;;
53064;SDS011;38948;48.376;-4.312;2022-10-24T08:16:03;1.30;;;0.52;;
53064;SDS011;38948;48.376;-4.312;2022-10-24T08:18:29;2.55;;;0.50;;
53064;SDS011;38948;48.376;-4.312;2022-10-24T08:20:57;1.35;;;0.25;;
53064;SDS011;38948;48.376;-4.312;2022-10-24T08:23:23;1.08;;;0.40;;
53064;SDS011;38948;48.376;-4.312;2022-10-24T08:25:49;2.60;;;0.57;;
53064;SDS011;38948;48.376;-4.312;2022-10-24T08:28:15;3.40;;;0.47;;
53064;SDS011;38948;48.376;-4.312;2022-10-24T08:30:41;2.53;;;0.55;;
53064;SDS011;38948;48.376;-4.312;2022-10-24T08:33:07;4.40;;;0.70;;
53064;SDS011;38948;48.376;-4.312;2022-10-24T08:35:33;3.45;;;0.60;;
53064;SDS011;38948;48.376;-4.312;2022-10-24T08:37:59;2.75;;;0.75;;
53064;SDS011;38948;48.376;-4.312;2022-10-24T08:40:26;2.67;;;0.73;;
53064;SDS011;38948;48.376;-4.312;2022-10-24T08:42:52;2.50;;;0.93;;
53064;SDS011;38948;48.376;-4.312;2022-10-24T08:45:25;2.42;;;0.70;;
53064;SDS011;38948;48.376;-4.312;2022-10-24T08:47:57;0.57;;;0.35;;
53064;SDS011;38948;48.376;-4.312;2022-10-24T08:50:30;2.63;;;0.82;;
53064;SDS011;38948;48.376;-4.312;2022-10-24T08:55:32;1.55;;;0.70;;
53064;SDS011;38948;48.376;-4.312;2022-10-24T08:58:01;2.40;;;0.88;;
53064;SDS011;38948;48.376;-4.312;2022-10-24T09:00:32;2.35;;;0.90;;
53064;SDS011;38948;48.376;-4.312;2022-10-24T09:03:03;3.65;;;0.63;;
53064;SDS011;38948;48.376;-4.312;2022-10-24T09:05:35;2.25;;;0.77;;
53064;SDS011;38948;48.376;-4.312;2022-10-24T09:08:05;2.25;;;0.98;;
53064;SDS011;38948;48.376;-4.312;2022-10-24T09:10:42;2.85;;;0.68;;
53064;SDS011;38948;48.376;-4.312;2022-10-24T09:13:12;2.80;;;0.82;;
53064;SDS011;38948;48.376;-4.312;2022-10-24T09:15:38;1.48;;;0.77;;
53064;SDS011;38948;48.376;-4.312;2022-10-24T09:18:08;2.90;;;0.77;;
53064;SDS011;38948;48.376;-4.312;2022-10-24T09:20:34;1.77;;;0.45;;
53064;SDS011;38948;48.376;-4.312;2022-10-24T09:23:01;1.45;;;0.50;;
53064;SDS011;38948;48.376;-4.312;2022-10-24T09:25:31;6.05;;;0.88;;
53064;SDS011;38948;48.376;-4.312;2022-10-24T09:28:00;2.00;;;0.77;;
53064;SDS011;38948;48.376;-4.312;2022-10-24T09:30:27;1.95;;;0.57;;
53064;SDS011;38948;48.376;-4.312;2022-10-24T09:32:53;3.60;;;0.93;;
53064;SDS011;38948;48.376;-4.312;2022-10-24T09:35:24;2.17;;;0.40;;
53064;SDS011;38948;48.376;-4.312;2022-10-24T09:38:36;2.63;;;0.50;;
53064;SDS011;38948;48.376;-4.312;2022-10-24T09:40:37;2.17;;;0.50;;
53064;SDS011;38948;48.376;-4.312;2022-10-24T09:45:49;1.65;;;0.50;;
53064;SDS011;38948;48.376;-4.312;2022-10-24T09:50:51;8.18;;;2.55;;
53064;SDS011;38948;48.376;-4.312;2022-10-24T09:55:59;7.85;;;3.58;;
53064;SDS011;38948;48.376;-4.312;2022-10-24T09:58:32;8.57;;;2.58;;
53064;SDS011;38948;48.376;-4.312;2022-10-24T10:03:29;7.13;;;2.35;;
53064;SDS011;38948;48.376;-4.312;2022-10-24T10:05:55;6.60;;;2.17;;
53064;SDS011;38948;48.376;-4.312;2022-10-24T10:08:24;7.93;;;2.92;;
53064;SDS011;38948;48.376;-4.312;2022-10-24T10:10:56;9.23;;;1.75;;
53064;SDS011;38948;48.376;-4.312;2022-10-24T10:13:23;6.63;;;2.55;;
53064;SDS011;38948;48.376;-4.312;2022-10-24T10:15:52;5.70;;;1.80;;
53064;SDS011;38948;48.376;-4.312;2022-10-24T10:20:45;8.48;;;2.38;;
53064;SDS011;38948;48.376;-4.312;2022-10-24T10:23:29;5.63;;;1.58;;
53064;SDS011;38948;48.376;-4.312;2022-10-24T10:28:28;5.20;;;1.45;;
53064;SDS011;38948;48.376;-4.312;2022-10-24T10:30:56;5.07;;;1.33;;
53064;SDS011;38948;48.376;-4.312;2022-10-24T10:33:34;5.75;;;1.60;;
53064;SDS011;38948;48.376;-4.312;2022-10-24T10:36:04;6.93;;;1.30;;
53064;SDS011;38948;48.376;-4.312;2022-10-24T10:44:04;3.50;;;1.48;;
53064;SDS011;38948;48.376;-4.312;2022-10-24T10:46:39;4.68;;;1.10;;
53064;SDS011;38948;48.376;-4.312;2022-10-24T10:51:50;3.63;;;0.98;;
53064;SDS011;38948;48.376;-4.312;2022-10-24T10:54:39;7.43;;;1.10;;
53064;SDS011;38948;48.376;-4.312;2022-10-24T10:57:13;5.18;;;0.95;;
53064;SDS011;38948;48.376;-4.312;2022-10-24T10:59:57;9.27;;;1.38;;
53064;SDS011;38948;48.376;-4.312;2022-10-24T11:09:57;3.03;;;0.88;;
53064;SDS011;38948;48.376;-4.312;2022-10-24T11:12:35;3.17;;;1.10;;
53064;SDS011;38948;48.376;-4.312;2022-10-24T11:15:19;5.70;;;1.42;;
53064;SDS011;38948;48.376;-4.312;2022-10-24T11:17:47;5.20;;;1.45;;
53064;SDS011;38948;48.376;-4.312;2022-10-24T11:20:16;6.40;;;1.00;;
53064;SDS011;38948;48.376;-4.312;2022-10-24T11:27:54;3.70;;;1.00;;
53064;SDS011;38948;48.376;-4.312;2022-10-24T11:30:28;4.72;;;0.73;;
53064;SDS011;38948;48.376;-4.312;2022-10-24T11:32:57;3.60;;;0.93;;
53064;SDS011;38948;48.376;-4.312;2022-10-24T11:35:26;4.28;;;1.65;;
53064;SDS011;38948;48.376;-4.312;2022-10-24T11:37:55;9.07;;;1.23;;
53064;SDS011;38948;48.376;-4.312;2022-10-24T11:40:23;4.75;;;1.27;;
53064;SDS011;38948;48.376;-4.312;2022-10-24T11:42:59;2.33;;;0.77;;
53064;SDS011;38948;48.376;-4.312;2022-10-24T11:45:27;4.80;;;0.95;;
53064;SDS011;38948;48.376;-4.312;2022-10-24T11:48:16;6.07;;;1.00;;
53064;SDS011;38948;48.376;-4.312;2022-10-24T11:50:51;3.67;;;0.98;;
53064;SDS011;38948;48.376;-4.312;2022-10-24T11:55:57;4.95;;;0.77;;
53064;SDS011;38948;48.376;-4.312;2022-10-24T11:58:25;2.75;;;0.82;;
53064;SDS011;38948;48.376;-4.312;2022-10-24T12:06:18;5.75;;;1.10;;
53064;SDS011;38948;48.376;-4.312;2022-10-24T12:19:10;2.15;;;0.70;;
53064;SDS011;38948;48.376;-4.312;2022-10-24T12:21:38;4.85;;;0.88;;
53064;SDS011;38948;48.376;-4.312;2022-10-24T12:24:05;3.13;;;0.88;;
53064;SDS011;38948;48.376;-4.312;2022-10-24T12:26:40;4.60;;;1.08;;
53064;SDS011;38948;48.376;-4.312;2022-10-24T12:29:17;4.55;;;0.90;;
53064;SDS011;38948;48.376;-4.312;2022-10-24T12:31:45;9.55;;;1.17;;
53064;SDS011;38948;48.376;-4.312;2022-10-24T12:34:39;4.32;;;0.93;;
53064;SDS011;38948;48.376;-4.312;2022-10-24T12:39:41;7.15;;;0.80;;
53064;SDS011;38948;48.376;-4.312;2022-10-24T12:44:36;10.43;;;1.17;;
53064;SDS011;38948;48.376;-4.312;2022-10-24T12:49:48;12.40;;;1.83;;
53064;SDS011;38948;48.376;-4.312;2022-10-24T12:54:54;9.52;;;1.45;;
53064;SDS011;38948;48.376;-4.312;2022-10-24T12:57:21;6.72;;;2.20;;
53064;SDS011;38948;48.376;-4.312;2022-10-24T12:59:57;4.57;;;1.08;;
53064;SDS011;38948;48.376;-4.312;2022-10-24T13:12:44;8.30;;;0.73;;
53064;SDS011;38948;48.376;-4.312;2022-10-24T13:18:25;5.05;;;1.10;;
53064;SDS011;38948;48.376;-4.312;2022-10-24T13:28:53;8.93;;;1.13;;
53064;SDS011;38948;48.376;-4.312;2022-10-24T13:33:46;12.52;;;1.70;;
53064;SDS011;38948;48.376;-4.312;2022-10-24T13:36:17;14.25;;;1.00;;
53064;SDS011;38948;48.376;-4.312;2022-10-24T13:39:00;9.82;;;1.58;;
53064;SDS011;38948;48.376;-4.312;2022-10-24T13:41:35;7.03;;;1.00;;
53064;SDS011;38948;48.376;-4.312;2022-10-24T13:46:42;6.60;;;1.23;;
53064;SDS011;38948;48.376;-4.312;2022-10-24T13:49:27;5.60;;;0.88;;
53064;SDS011;38948;48.376;-4.312;2022-10-24T13:52:16;8.23;;;1.00;;
53064;SDS011;38948;48.376;-4.312;2022-10-24T13:54:44;3.53;;;0.90;;
53064;SDS011;38948;48.376;-4.312;2022-10-24T13:57:21;6.78;;;0.82;;
53064;SDS011;38948;48.376;-4.312;2022-10-24T13:59:55;5.80;;;0.60;;
53064;SDS011;38948;48.376;-4.312;2022-10-24T14:02:27;3.08;;;0.60;;
53064;SDS011;38948;48.376;-4.312;2022-10-24T14:04:55;2.83;;;1.00;;
53064;SDS011;38948;48.376;-4.312;2022-10-24T14:07:25;4.00;;;1.05;;
53064;SDS011;38948;48.376;-4.312;2022-10-24T14:10:02;3.95;;;0.88;;
53064;SDS011;38948;48.376;-4.312;2022-10-24T14:12:32;6.95;;;1.77;;
53064;SDS011;38948;48.376;-4.312;2022-10-24T14:15:00;6.45;;;1.05;;
53064;SDS011;38948;48.376;-4.312;2022-10-24T14:17:33;7.13;;;1.30;;
53064;SDS011;38948;48.376;-4.312;2022-10-24T14:22:34;8.18;;;1.55;;
53064;SDS011;38948;48.376;-4.312;2022-10-24T14:25:04;4.25;;;0.85;;
53064;SDS011;38948;48.376;-4.312;2022-10-24T14:27:31;4.80;;;1.38;;
53064;SDS011;38948;48.376;-4.312;2022-10-24T14:30:00;11.07;;;1.27;;
53064;SDS011;38948;48.376;-4.312;2022-10-24T14:32:28;3.47;;;0.80;;
53064;SDS011;38948;48.376;-4.312;2022-10-24T14:34:55;6.65;;;1.23;;
53064;SDS011;38948;48.376;-4.312;2022-10-24T14:37:29;4.90;;;0.82;;
53064;SDS011;38948;48.376;-4.312;2022-10-24T14:39:59;5.88;;;1.10;;
53064;SDS011;38948;48.376;-4.312;2022-10-24T14:42:25;4.85;;;0.65;;
53064;SDS011;38948;48.376;-4.312;2022-10-24T14:44:52;5.55;;;1.35;;
53064;SDS011;38948;48.376;-4.312;2022-10-24T14:47:22;6.22;;;0.98;;
53064;SDS011;38948;48.376;-4.312;2022-10-24T14:49:48;8.30;;;1.25;;
53064;SDS011;38948;48.376;-4.312;2022-10-24T14:52:28;7.68;;;1.00;;
53064;SDS011;38948;48.376;-4.312;2022-10-24T14:55:05;6.07;;;1.25;;
53064;SDS011;38948;48.376;-4.312;2022-10-24T14:57:37;8.98;;;1.10;;
53064;SDS011;38948;48.376;-4.312;2022-10-24T15:00:06;6.03;;;1.25;;
53064;SDS011;38948;48.376;-4.312;2022-10-24T15:02:43;6.97;;;1.02;;
53064;SDS011;38948;48.376;-4.312;2022-10-24T15:07:47;8.25;;;1.23;;
53064;SDS011;38948;48.376;-4.312;2022-10-24T15:12:53;3.85;;;1.10;;
53064;SDS011;38948;48.376;-4.312;2022-10-24T15:15:32;7.72;;;1.10;;
53064;SDS011;38948;48.376;-4.312;2022-10-24T15:20:52;5.20;;;0.93;;
53064;SDS011;38948;48.376;-4.312;2022-10-24T15:23:25;7.90;;;1.13;;
53064;SDS011;38948;48.376;-4.312;2022-10-24T15:28:47;5.60;;;1.10;;
53064;SDS011;38948;48.376;-4.312;2022-10-24T15:31:40;3.95;;;1.05;;
53064;SDS011;38948;48.376;-4.312;2022-10-24T15:34:12;5.75;;;0.88;;
53064;SDS011;38948;48.376;-4.312;2022-10-24T15:36:42;6.35;;;0.88;;
53064;SDS011;38948;48.376;-4.312;2022-10-24T15:39:12;6.85;;;0.75;;
53064;SDS011;38948;48.376;-4.312;2022-10-24T15:41:41;3.55;;;0.93;;
53064;SDS011;38948;48.376;-4.312;2022-10-24T15:44:24;4.68;;;1.10;;
53064;SDS011;38948;48.376;-4.312;2022-10-24T15:46:52;14.27;;;1.02;;
53064;SDS011;38948;48.376;-4.312;2022-10-24T15:49:19;3.13;;;0.80;;
53064;SDS011;38948;48.376;-4.312;2022-10-24T15:51:45;7.30;;;0.98;;
53064;SDS011;38948;48.376;-4.312;2022-10-24T15:54:13;5.78;;;1.70;;
53064;SDS011;38948;48.376;-4.312;2022-10-24T15:56:40;5.20;;;0.90;;
53064;SDS011;38948;48.376;-4.312;2022-10-24T15:59:06;6.43;;;0.75;;
53064;SDS011;38948;48.376;-4.312;2022-10-24T16:01:36;7.78;;;1.05;;
53064;SDS011;38948;48.376;-4.312;2022-10-24T16:04:08;5.85;;;0.88;;
53064;SDS011;38948;48.376;-4.312;2022-10-24T16:06:35;4.95;;;1.20;;
53064;SDS011;38948;48.376;-4.312;2022-10-24T16:09:01;7.50;;;1.40;;
53064;SDS011;38948;48.376;-4.312;2022-10-24T16:11:28;9.18;;;1.40;;
53064;SDS011;38948;48.376;-4.312;2022-10-24T16:13:53;6.20;;;0.80;;
53064;SDS011;38948;48.376;-4.312;2022-10-24T16:16:20;6.45;;;1.02;;
53064;SDS011;38948;48.376;-4.312;2022-10-24T16:18:46;3.97;;;0.75;;
53064;SDS011;38948;48.376;-4.312;2022-10-24T16:21:16;6.20;;;1.20;;
53064;SDS011;38948;48.376;-4.312;2022-10-24T16:23:44;6.82;;;1.00;;
53064;SDS011;38948;48.376;-4.312;2022-10-24T16:26:10;10.95;;;1.08;;
53064;SDS011;38948;48.376;-4.312;2022-10-24T16:28:36;4.13;;;0.90;;
53064;SDS011;38948;48.376;-4.312;2022-10-24T16:31:02;5.43;;;0.75;;
53064;SDS011;38948;48.376;-4.312;2022-10-24T16:33:29;10.55;;;1.17;;
53064;SDS011;38948;48.376;-4.312;2022-10-24T16:35:55;5.20;;;0.90;;
53064;SDS011;38948;48.376;-4.312;2022-10-24T16:38:21;6.03;;;1.00;;
53064;SDS011;38948;48.376;-4.312;2022-10-24T16:40:47;7.20;;;0.95;;
53064;SDS011;38948;48.376;-4.312;2022-10-24T16:43:14;4.70;;;1.00;;
53064;SDS011;38948;48.376;-4.312;2022-10-24T16:45:42;5.32;;;1.30;;